Time;durP1;ratioP1;P1;durP2;ratioP2;P2;SDS_P1;SDS_P2;PMS_P1;PMS_P2;Temp;Humidity;BMP_temperature;BMP_pressure;BME280_temperature;BME280_humidity;BME280_pressure;Samples;Min_cycle;Max_cycle;Signal;HPM_P1;HPM_P2
2023/05/16 00:00:47;;;;;;;;;;;;;;;16.31;100.00;99840.22;5068992;28;19920;-57
2023/05/16 00:03:13;;;;;;;;;;;;;;;16.28;100.00;99835.88;5069397;28;19916;-57
2023/05/16 00:05:39;;;;;;;;;;;;;;;16.28;100.00;99830.50;5069386;28;19916;-56
2023/05/16 00:08:04;;;;;;;;;;;;;;;16.30;100.00;99827.72;5068328;28;19923;-56
2023/05/16 00:10:30;;;;;;;;;;;;;;;16.27;100.00;99827.91;5067687;28;19927;-56
2023/05/16 00:12:56;;;;;;;;;;;;;;;16.30;100.00;99833.09;5067097;28;19921;-56
2023/05/16 00:15:22;;;;;;;;;;;;;;;16.30;100.00;99835.78;5068540;28;19920;-56
2023/05/16 00:17:48;;;;;;;;;;;;;;;16.27;100.00;99830.59;5067773;28;19916;-56
2023/05/16 00:20:16;;;;;;;;;;;;;;;16.23;100.00;99827.22;5054674;28;19927;-56
2023/05/16 00:22:41;;;;;;;;;;;;;;;16.25;100.00;99835.19;5050051;28;19955;-56
2023/05/16 00:25:08;;;;;;;;;;;;;;;16.24;100.00;99825.41;5088141;28;20455;-56
2023/05/16 00:27:33;;;;;;;;;;;;;;;16.21;100.00;99833.66;5081974;28;20300;-56
2023/05/16 00:29:59;;;;;;;;;;;;;;;16.17;100.00;99829.41;5058809;28;19921;-57
2023/05/16 00:32:24;;;;;;;;;;;;;;;16.13;100.00;99830.53;5053989;28;19948;-56
2023/05/16 00:34:49;;;;;;;;;;;;;;;16.10;100.00;99833.38;5072675;28;19916;-55
2023/05/16 00:37:15;;;;;;;;;;;;;;;16.12;100.00;99832.34;5072668;28;19916;-56
2023/05/16 00:39:40;;;;;;;;;;;;;;;16.11;100.00;99837.81;5071179;28;19965;-56
2023/05/16 00:42:05;;;;;;;;;;;;;;;16.11;100.00;99837.81;5071406;28;20423;-56
2023/05/16 00:44:31;;;;;;;;;;;;;;;16.06;100.00;99827.34;5070692;28;19916;-57
2023/05/16 00:46:57;;;;;;;;;;;;;;;16.03;100.00;99827.50;5070860;28;20368;-56
2023/05/16 00:49:22;;;;;;;;;;;;;;;16.04;100.00;99831.06;5070176;28;19917;-56
2023/05/16 00:51:48;;;;;;;;;;;;;;;16.03;100.00;99826.66;5070807;28;19928;-57
2023/05/16 00:54:13;;;;;;;;;;;;;;;15.99;100.00;99827.78;5072574;28;20000;-56
2023/05/16 00:56:38;;;;;;;;;;;;;;;16.02;100.00;99827.59;5067366;28;19917;-56
2023/05/16 00:59:04;;;;;;;;;;;;;;;16.03;100.00;99823.97;5077697;28;19972;-56
2023/05/16 01:01:29;;;;;;;;;;;;;;;16.00;100.00;99826.81;5090323;28;19923;-56
2023/05/16 01:03:54;;;;;;;;;;;;;;;16.00;100.00;99826.81;5090174;28;19920;-56
2023/05/16 01:06:20;;;;;;;;;;;;;;;16.02;100.00;99830.28;5089739;28;19920;-56
2023/05/16 01:08:45;;;;;;;;;;;;;;;16.02;100.00;99828.47;5091481;28;19927;-56
2023/05/16 01:11:29;;;;;;;;;;;;;;;16.01;100.00;99823.19;5090752;28;20283;-57
2023/05/16 01:14:17;;;;;;;;;;;;;;;15.97;100.00;99827.00;5092165;28;20291;-56
2023/05/16 01:16:51;;;;;;;;;;;;;;;15.96;100.00;99826.16;5053900;28;19963;-57
2023/05/16 01:19:39;;;;;;;;;;;;;;;15.98;100.00;99831.44;5090481;28;20352;-57
2023/05/16 01:22:15;;;;;;;;;;;;;;;15.99;100.00;99823.28;5092061;28;19920;-57
2023/05/16 01:24:59;;;;;;;;;;;;;;;15.97;100.00;99825.19;5091851;28;20370;-56
2023/05/16 01:27:26;;;;;;;;;;;;;;;15.92;100.00;99827.25;5091033;28;20003;-57
2023/05/16 01:29:54;;;;;;;;;;;;;;;15.92;100.00;99827.25;5090509;28;19966;-57
2023/05/16 01:32:21;;;;;;;;;;;;;;;15.92;100.00;99823.72;5090301;28;19920;-57
2023/05/16 01:34:46;;;;;;;;;;;;;;;15.91;100.00;99825.56;5091247;28;20019;-57
2023/05/16 01:37:16;;;;;;;;;;;;;;;15.89;100.00;99826.56;5090161;28;20030;-56
2023/05/16 01:39:53;;;;;;;;;;;;;;;15.89;100.00;99826.56;5090970;28;19918;-56
2023/05/16 01:42:21;;;;;;;;;;;;;;;15.87;100.00;99834.72;5091474;28;19927;-56
2023/05/16 01:44:55;;;;;;;;;;;;;;;15.88;100.00;99824.84;5080124;28;19985;-57
2023/05/16 01:47:24;;;;;;;;;;;;;;;15.90;100.00;99831.00;5076151;28;19956;-57
2023/05/16 01:49:52;;;;;;;;;;;;;;;15.91;100.00;99824.66;5069261;28;19945;-56
2023/05/16 01:52:19;;;;;;;;;;;;;;;15.90;100.00;99829.16;5078333;28;19927;-57
2023/05/16 01:54:47;;;;;;;;;;;;;;;15.92;100.00;99826.38;5089432;28;19916;-57
2023/05/16 01:57:12;;;;;;;;;;;;;;;15.90;100.00;99834.53;5088642;28;19931;-56
2023/05/16 01:59:39;;;;;;;;;;;;;;;15.89;100.00;99837.31;5071316;28;20356;-56
2023/05/16 02:02:05;;;;;;;;;;;;;;;15.91;100.00;99835.41;5064300;28;19993;-57
2023/05/16 02:04:30;;;;;;;;;;;;;;;15.89;100.00;99837.31;5070615;28;19924;-56
2023/05/16 02:06:55;;;;;;;;;;;;;;;15.89;100.00;99842.66;5069820;28;20276;-57
2023/05/16 02:09:21;;;;;;;;;;;;;;;15.88;100.00;99840.94;5070015;28;19923;-57
2023/05/16 02:11:46;;;;;;;;;;;;;;;15.88;100.00;99835.59;5070064;28;19916;-57
2023/05/16 02:14:11;;;;;;;;;;;;;;;15.85;100.00;99841.13;5070714;28;20579;-57
2023/05/16 02:16:37;;;;;;;;;;;;;;;15.81;100.00;99843.13;5070314;28;19959;-57
2023/05/16 02:19:02;;;;;;;;;;;;;;;15.81;100.00;99841.28;5069240;28;19920;-57
2023/05/16 02:21:27;;;;;;;;;;;;;;;15.81;100.00;99841.28;5070127;28;19916;-57
2023/05/16 02:23:53;;;;;;;;;;;;;;;15.80;100.00;99844.91;5069507;28;19924;-57
2023/05/16 02:26:18;;;;;;;;;;;;;;;15.78;100.00;99841.44;5068336;28;20471;-58
2023/05/16 02:28:43;;;;;;;;;;;;;;;15.78;100.00;99833.41;5063576;28;19973;-57
2023/05/16 02:31:09;;;;;;;;;;;;;;;15.82;100.00;99840.34;5064420;28;19924;-57
2023/05/16 02:33:34;;;;;;;;;;;;;;;15.81;100.00;99835.91;5068498;28;19920;-57
2023/05/16 02:36:00;;;;;;;;;;;;;;;15.81;100.00;99841.28;5068733;28;19923;-57
2023/05/16 02:38:25;;;;;;;;;;;;;;;15.81;100.00;99841.28;5067905;28;20003;-57
2023/05/16 02:40:50;;;;;;;;;;;;;;;15.80;100.00;99850.28;5069346;28;19917;-58
2023/05/16 02:43:16;;;;;;;;;;;;;;;15.81;100.00;99849.31;5069268;28;19971;-57
2023/05/16 02:45:41;;;;;;;;;;;;;;;15.81;100.00;99843.97;5069802;28;19935;-57
2023/05/16 02:48:06;;;;;;;;;;;;;;;15.81;100.00;99841.28;5068252;28;19923;-57
2023/05/16 02:50:32;;;;;;;;;;;;;;;15.81;100.00;99841.28;5069365;28;20005;-57
2023/05/16 02:52:58;;;;;;;;;;;;;;;15.81;100.00;99835.91;5067862;28;19916;-57
2023/05/16 02:55:24;;;;;;;;;;;;;;;15.83;100.00;99844.75;5069496;28;20657;-56
2023/05/16 02:57:49;;;;;;;;;;;;;;;15.86;100.00;99842.84;5069340;28;19916;-57
2023/05/16 03:00:15;;;;;;;;;;;;;;;15.86;100.00;99835.66;5088592;28;19971;-57
2023/05/16 03:02:40;;;;;;;;;;;;;;;15.86;100.00;99842.84;5088272;28;19935;-57
2023/05/16 03:05:06;;;;;;;;;;;;;;;15.87;100.00;99850.81;5089235;28;20394;-57
2023/05/16 03:07:31;;;;;;;;;;;;;;;15.77;100.00;99837.06;5084044;28;19999;-56
2023/05/16 03:09:56;;;;;;;;;;;;;;;15.83;100.00;99852.78;5070911;28;19970;-57
2023/05/16 03:12:21;;;;;;;;;;;;;;;15.80;100.00;99854.78;5089379;28;20572;-57
2023/05/16 03:14:47;;;;;;;;;;;;;;;15.79;100.00;99853.94;5089884;28;19954;-57
2023/05/16 03:17:12;;;;;;;;;;;;;;;15.74;100.00;99856.00;5062807;28;19916;-57
2023/05/16 03:19:37;;;;;;;;;;;;;;;15.72;100.00;99854.34;5090081;28;19912;-57
2023/05/16 03:22:03;;;;;;;;;;;;;;;15.69;100.00;99857.19;5089555;28;20010;-56
2023/05/16 03:24:28;;;;;;;;;;;;;;;15.68;100.00;99867.06;5089960;28;19920;-58
2023/05/16 03:26:53;;;;;;;;;;;;;;;15.64;100.00;99857.47;5090032;28;19962;-56
2023/05/16 03:29:19;;;;;;;;;;;;;;;15.62;100.00;99856.69;5089687;28;19951;-57
2023/05/16 03:31:44;;;;;;;;;;;;;;;15.61;100.00;99854.09;5088733;28;19927;-57
2023/05/16 03:34:09;;;;;;;;;;;;;;;15.56;100.00;99846.31;5089194;28;20011;-57
2023/05/16 03:36:35;;;;;;;;;;;;;;;15.55;100.00;99857.13;5087833;28;20671;-57
2023/05/16 03:39:00;;;;;;;;;;;;;;;15.51;100.00;99859.09;5073962;28;19944;-58
2023/05/16 03:41:26;;;;;;;;;;;;;;;15.46;100.00;99861.16;5079614;28;19920;-58
2023/05/16 03:43:51;;;;;;;;;;;;;;;15.42;100.00;99864.94;5088029;28;20368;-58
2023/05/16 03:46:16;;;;;;;;;;;;;;;15.40;100.00;99861.47;5087240;28;19916;-58
2023/05/16 03:48:41;;;;;;;;;;;;;;;15.42;100.00;99858.75;5074850;28;19958;-58
2023/05/16 03:51:07;;;;;;;;;;;;;;;15.34;100.00;99867.16;5088947;28;19923;-58
2023/05/16 03:53:32;;;;;;;;;;;;;;;15.35;100.00;99874.22;5088801;28;19916;-57
2023/05/16 03:55:58;;;;;;;;;;;;;;;15.35;100.00;99879.59;5088410;28;19961;-57
2023/05/16 03:58:23;;;;;;;;;;;;;;;15.33;100.00;99876.16;5088540;28;20551;-58
2023/05/16 04:00:49;;;;;;;;;;;;;;;15.30;100.00;99880.81;5087980;28;19999;-57
2023/05/16 04:03:15;;;;;;;;;;;;;;;15.12;100.00;99888.00;5089610;28;20591;-58
2023/05/16 04:05:40;;;;;;;;;;;;;;;15.14;100.00;99891.47;5092352;28;20064;-57
2023/05/16 04:08:05;;;;;;;;;;;;;;;15.15;100.00;99884.31;5091561;28;20428;-57
2023/05/16 04:10:31;;;;;;;;;;;;;;;15.13;100.00;99888.88;5092450;28;19916;-58
2023/05/16 04:12:56;;;;;;;;;;;;;;;15.14;100.00;99878.06;5092904;28;19988;-57
2023/05/16 04:15:21;;;;;;;;;;;;;;;15.13;100.00;99894.22;5092704;28;19942;-57
2023/05/16 04:17:46;;;;;;;;;;;;;;;15.06;100.00;99890.13;5093292;28;19969;-57
2023/05/16 04:20:12;;;;;;;;;;;;;;;15.07;100.00;99895.44;5092390;28;19923;-57
2023/05/16 04:22:37;;;;;;;;;;;;;;;15.05;100.00;99893.78;5091379;28;20348;-58
2023/05/16 04:25:03;;;;;;;;;;;;;;;15.02;100.00;99897.50;5090807;28;20022;-58
2023/05/16 04:27:29;;;;;;;;;;;;;;;15.06;100.00;99904.41;5083940;28;19920;-57
2023/05/16 04:29:55;;;;;;;;;;;;;;;15.06;100.00;99904.41;5090730;28;19916;-57
2023/05/16 04:32:20;;;;;;;;;;;;;;;15.06;100.00;99909.75;5091275;28;20391;-58
2023/05/16 04:34:47;;;;;;;;;;;;;;;15.06;100.00;99909.75;5090117;28;20061;-58
2023/05/16 04:37:13;;;;;;;;;;;;;;;15.09;100.00;99904.22;5091348;28;19912;-57
2023/05/16 04:39:38;;;;;;;;;;;;;;;15.06;100.00;99904.41;5089728;28;19926;-57
2023/05/16 04:42:04;;;;;;;;;;;;;;;15.06;100.00;99899.03;5091636;28;19959;-57
2023/05/16 04:44:29;;;;;;;;;;;;;;;15.06;100.00;99899.03;5091937;28;19920;-57
2023/05/16 04:46:54;;;;;;;;;;;;;;;15.10;100.00;99903.31;5091245;28;20368;-57
2023/05/16 04:49:20;;;;;;;;;;;;;;;15.10;100.00;99907.78;5090974;28;20554;-57
2023/05/16 04:51:46;;;;;;;;;;;;;;;15.13;100.00;99910.31;5090917;28;19923;-57
2023/05/16 04:54:11;;;;;;;;;;;;;;;15.13;100.00;99913.84;5091656;28;20301;-56
2023/05/16 04:56:36;;;;;;;;;;;;;;;15.16;100.00;99915.50;5091654;28;19919;-56
2023/05/16 04:59:03;;;;;;;;;;;;;;;15.17;100.00;99915.41;5090434;28;19939;-56
2023/05/16 05:01:28;;;;;;;;;;;;;;;15.18;100.00;99922.53;5086569;28;19920;-56
2023/05/16 05:03:54;;;;;;;;;;;;;;;15.22;100.00;99924.06;5092225;28;19974;-56
2023/05/16 05:06:19;;;;;;;;;;;;;;;15.20;100.00;99922.44;5091020;28;20011;-57
2023/05/16 05:08:44;;;;;;;;;;;;;;;15.19;100.00;99921.56;5091783;28;19920;-55
2023/05/16 05:11:10;;;;;;;;;;;;;;;15.21;100.00;99922.34;5092281;28;19912;-57
2023/05/16 05:13:35;;;;;;;;;;;;;;;15.22;100.00;99926.75;5090960;28;20283;-56
2023/05/16 05:16:03;;;;;;;;;;;;;;;15.23;100.00;99933.00;5090836;28;20002;-56
2023/05/16 05:18:28;;;;;;;;;;;;;;;15.23;100.00;99936.53;5090984;28;20442;-56
2023/05/16 05:20:54;;;;;;;;;;;;;;;15.27;100.00;99932.75;5091299;28;19920;-56
2023/05/16 05:23:19;;;;;;;;;;;;;;;15.28;100.00;99934.50;5090575;28;19943;-56
2023/05/16 05:25:45;;;;;;;;;;;;;;;15.30;100.00;99932.59;5091563;28;19916;-56
2023/05/16 05:28:10;;;;;;;;;;;;;;;15.34;100.00;99939.50;5089928;28;19926;-56
2023/05/16 05:30:35;;;;;;;;;;;;;;;15.34;100.00;99938.63;5090556;28;19963;-56
2023/05/16 05:33:01;;;;;;;;;;;;;;;15.19;100.00;99907.31;5090442;28;19947;-57
2023/05/16 05:35:26;;;;;;;;;;;;;;;15.37;100.00;99931.31;5089431;28;19924;-56
2023/05/16 05:37:51;;;;;;;;;;;;;;;15.41;100.00;99934.72;5090273;28;19966;-56
2023/05/16 05:40:16;;;;;;;;;;;;;;;15.40;100.00;99933.84;5090013;28;20280;-56
2023/05/16 05:42:42;;;;;;;;;;;;;;;15.43;100.00;99939.06;5091087;28;19977;-56
2023/05/16 05:45:07;;;;;;;;;;;;;;;15.46;100.00;99929.97;5072998;28;19920;-57
2023/05/16 05:47:33;;;;;;;;;;;;;;;15.48;100.00;99933.44;5087946;28;19924;-57
2023/05/16 05:49:58;;;;;;;;;;;;;;;15.55;100.00;99934.88;5090589;28;20366;-57
2023/05/16 05:52:24;;;;;;;;;;;;;;;15.58;100.00;99935.53;5090692;28;19927;-57
2023/05/16 05:54:49;;;;;;;;;;;;;;;15.59;100.00;99941.78;5090391;28;19927;-58
2023/05/16 05:57:15;;;;;;;;;;;;;;;15.53;100.00;99937.59;5090351;28;19923;-57
2023/05/16 05:59:40;;;;;;;;;;;;;;;15.49;100.00;99941.41;5089260;28;19930;-58
2023/05/16 06:02:06;;;;;;;;;;;;;;;15.42;100.00;99945.34;5091318;28;19998;-57
2023/05/16 06:04:31;;;;;;;;;;;;;;;15.45;100.00;99945.19;5090954;28;19943;-57
2023/05/16 06:06:57;;;;;;;;;;;;;;;15.48;100.00;99949.53;5090366;28;20364;-58
2023/05/16 06:09:22;;;;;;;;;;;;;;;15.46;100.00;99952.31;5090265;28;19916;-57
2023/05/16 06:11:48;;;;;;;;;;;;;;;15.48;100.00;99954.91;5091253;28;19923;-54
2023/05/16 06:14:14;;;;;;;;;;;;;;;15.48;100.00;99952.22;5089475;28;20362;-56
2023/05/16 06:16:40;;;;;;;;;;;;;;;15.48;100.00;99961.13;5089182;28;20371;-56
2023/05/16 06:19:05;;;;;;;;;;;;;;;15.48;100.00;99955.78;5089260;28;19920;-55
2023/05/16 06:21:32;;;;;;;;;;;;;;;15.53;100.00;99958.19;5089924;28;20546;-56
2023/05/16 06:23:57;;;;;;;;;;;;;;;15.50;100.00;99964.56;5089627;28;19927;-56
2023/05/16 06:26:23;;;;;;;;;;;;;;;15.51;100.00;99966.34;5087894;28;19919;-56
2023/05/16 06:28:48;;;;;;;;;;;;;;;15.53;100.00;99959.03;5089403;28;19995;-55
2023/05/16 06:31:14;;;;;;;;;;;;;;;15.60;100.00;99960.47;5088663;28;19920;-56
2023/05/16 06:33:39;;;;;;;;;;;;;;;15.64;100.00;99961.16;5090615;28;19923;-56
2023/05/16 06:36:05;;;;;;;;;;;;;;;15.72;100.00;99962.50;5090194;28;19927;-56
2023/05/16 06:38:30;;;;;;;;;;;;;;;15.71;100.00;99968.81;5073768;28;20269;-56
2023/05/16 06:40:55;;;;;;;;;;;;;;;15.74;100.00;99968.63;5082602;28;19920;-56
2023/05/16 06:43:21;;;;;;;;;;;;;;;15.73;100.00;99974.94;5089583;28;19938;-56
2023/05/16 06:45:46;;;;;;;;;;;;;;;15.75;100.00;99975.72;5082822;28;20003;-56
2023/05/16 06:48:12;;;;;;;;;;;;;;;15.75;100.00;99978.41;5069028;28;19913;-56
2023/05/16 06:50:37;;;;;;;;;;;;;;;15.74;100.00;99979.38;5084864;28;20402;-55
2023/05/16 06:53:03;;;;;;;;;;;;;;;15.72;100.00;99981.25;5081753;28;19920;-56
2023/05/16 06:55:29;;;;;;;;;;;;;;;15.72;100.00;99981.25;5079516;28;19920;-56
2023/05/16 06:57:54;;;;;;;;;;;;;;;15.72;100.00;99996.47;5079036;28;20383;-56
2023/05/16 07:00:20;;;;;;;;;;;;;;;15.64;100.00;99994.22;5089261;28;20020;-56
2023/05/16 07:02:45;;;;;;;;;;;;;;;15.57;100.00;100002.66;5088927;28;19923;-56
2023/05/16 07:05:11;;;;;;;;;;;;;;;15.50;100.00;100002.09;5081741;28;20309;-56
2023/05/16 07:07:36;;;;;;;;;;;;;;;15.47;100.00;100006.75;5076882;28;19931;-55
2023/05/16 07:10:02;;;;;;;;;;;;;;;15.51;100.00;100003.00;5087418;28;19916;-55
2023/05/16 07:12:27;;;;;;;;;;;;;;;15.55;100.00;100004.56;5088938;28;20355;-55
2023/05/16 07:14:52;;;;;;;;;;;;;;;15.51;100.00;100011.91;5088589;28;19940;-56
2023/05/16 07:17:18;;;;;;;;;;;;;;;15.40;100.00;100000.84;5086428;28;19927;-56
2023/05/16 07:19:43;;;;;;;;;;;;;;;15.44;100.00;100006.94;5082991;28;19924;-55
2023/05/16 07:22:09;;;;;;;;;;;;;;;15.49;100.00;100005.75;5079377;28;19996;-56
2023/05/16 07:24:35;;;;;;;;;;;;;;;15.54;100.00;100009.06;5086338;28;20039;-55
2023/05/16 07:27:00;;;;;;;;;;;;;;;15.53;100.00;100012.66;5078816;28;20049;-56
2023/05/16 07:29:25;;;;;;;;;;;;;;;15.47;100.00;100007.63;5085129;28;20031;-56
2023/05/16 07:31:51;;;;;;;;;;;;;;;15.48;100.00;100019.25;5079416;28;19924;-56
2023/05/16 07:34:16;;;;;;;;;;;;;;;15.51;100.00;100017.28;5079318;28;20612;-56
2023/05/16 07:36:41;;;;;;;;;;;;;;;15.53;100.00;100017.19;5085225;28;19916;-56
2023/05/16 07:39:07;;;;;;;;;;;;;;;15.50;100.00;100022.72;5079613;28;20411;-56
2023/05/16 07:41:32;;;;;;;;;;;;;;;15.38;100.00;100021.50;5087662;28;19920;-56
2023/05/16 07:43:57;;;;;;;;;;;;;;;15.37;100.00;100027.78;5084590;28;19940;-57
2023/05/16 07:46:23;;;;;;;;;;;;;;;15.45;100.00;100025.59;5086846;28;20007;-55
2023/05/16 07:48:48;;;;;;;;;;;;;;;15.40;100.00;100027.66;5078550;28;20343;-55
2023/05/16 07:51:13;;;;;;;;;;;;;;;15.37;100.00;100027.78;5087303;28;19920;-55
2023/05/16 07:53:38;;;;;;;;;;;;;;;15.32;100.00;100035.19;5071010;28;19916;-56
2023/05/16 07:56:05;;;;;;;;;;;;;;;15.07;100.00;99999.91;5071277;28;19924;-56
2023/05/16 07:58:30;;;;;;;;;;;;;;;15.19;100.00;100034.09;5084169;28;20436;-56
2023/05/16 08:00:55;;;;;;;;;;;;;;;15.16;100.00;100028.91;5085334;28;19916;-56
2023/05/16 08:03:21;;;;;;;;;;;;;;;15.24;100.00;100026.69;5092897;28;19924;-56
2023/05/16 08:05:47;;;;;;;;;;;;;;;15.27;100.00;100028.38;5094190;28;19920;-56
2023/05/16 08:08:13;;;;;;;;;;;;;;;15.31;100.00;100044.19;5092301;28;19923;-56
2023/05/16 08:10:38;;;;;;;;;;;;;;;15.40;100.00;100038.38;5085031;28;19920;-55
2023/05/16 08:13:03;;;;;;;;;;;;;;;15.51;100.00;100041.41;5064765;28;19912;-56
2023/05/16 08:15:29;;;;;;;;;;;;;;;15.50;100.00;100038.81;5084044;28;19912;-56
2023/05/16 08:17:57;;;;;;;;;;;;;;;15.44;100.00;100045.34;5088118;28;19920;-56
2023/05/16 08:20:23;;;;;;;;;;;;;;;15.41;100.00;100041.94;5080318;28;19918;-56
2023/05/16 08:22:48;;;;;;;;;;;;;;;15.43;100.00;100048.97;5072543;28;19949;-56
2023/05/16 08:25:14;;;;;;;;;;;;;;;15.49;100.00;100047.78;5076995;28;20317;-56
2023/05/16 08:27:39;;;;;;;;;;;;;;;15.35;99.49;100045.75;5093043;28;19998;-56
2023/05/16 08:30:05;;;;;;;;;;;;;;;15.36;100.00;100046.63;5089656;28;19927;-57
2023/05/16 08:32:30;;;;;;;;;;;;;;;15.36;100.00;100050.19;5083910;28;20542;-56
2023/05/16 08:34:55;;;;;;;;;;;;;;;15.44;100.00;100048.00;5078226;28;19959;-56
2023/05/16 08:37:21;;;;;;;;;;;;;;;15.45;100.00;100054.25;5082236;28;19920;-56
2023/05/16 08:39:46;;;;;;;;;;;;;;;15.45;100.00;100051.56;5083178;28;19926;-56
2023/05/16 08:42:11;;;;;;;;;;;;;;;15.51;100.00;100052.13;5090814;28;19966;-55
2023/05/16 08:44:37;;;;;;;;;;;;;;;15.55;100.00;100052.84;5089560;28;19920;-55
2023/05/16 08:47:10;;;;;;;;;;;;;;;15.59;100.00;100057.06;5091057;28;20010;-55
2023/05/16 08:49:37;;;;;;;;;;;;;;;15.63;100.00;100051.47;5079295;28;20744;-57
2023/05/16 08:52:05;;;;;;;;;;;;;;;15.66;100.00;100062.06;5087988;28;19916;-56
2023/05/16 08:54:31;;;;;;;;;;;;;;;15.64;100.00;100061.25;5073105;28;19920;-55
2023/05/16 08:56:57;;;;;;;;;;;;;;;15.63;100.00;100062.19;5081155;28;20018;-55
2023/05/16 08:59:22;;;;;;;;;;;;;;;15.62;100.00;100060.47;5081700;28;20007;-57
2023/05/16 09:01:48;;;;;;;;;;;;;;;15.60;100.00;100062.34;5078250;28;19920;-56
2023/05/16 09:04:13;;;;;;;;;;;;;;;15.64;100.00;100063.94;5081427;28;19931;-56
2023/05/16 09:06:39;;;;;;;;;;;;;;;15.66;100.00;100063.84;5086833;28;20332;-56
2023/05/16 09:09:06;;;;;;;;;;;;;;;15.67;100.00;100063.78;5085100;28;20339;-56
2023/05/16 09:11:32;;;;;;;;;;;;;;;15.69;100.00;100069.94;5079312;28;19920;-56
2023/05/16 09:13:57;;;;;;;;;;;;;;;15.77;100.00;100070.38;5088970;28;20015;-56
2023/05/16 09:16:22;;;;;;;;;;;;;;;15.85;100.00;100061.06;5089621;28;19936;-57
2023/05/16 09:18:55;;;;;;;;;;;;;;;15.88;100.00;100063.59;5089241;28;19920;-55
2023/05/16 09:21:21;;;;;;;;;;;;;;;15.95;100.00;100062.31;5089895;28;19933;-56
2023/05/16 09:23:47;;;;;;;;;;;;;;;16.07;100.00;100075.06;5082192;28;19955;-56
2023/05/16 09:26:13;;;;;;;;;;;;;;;15.91;100.00;100068.78;5083926;28;19916;-56
2023/05/16 09:28:39;;;;;;;;;;;;;;;15.86;100.00;100065.47;5068709;28;19923;-55
2023/05/16 09:31:18;;;;;;;;;;;;;;;15.90;99.55;100070.59;5073671;28;20390;-56
2023/05/16 09:33:43;;;;;;;;;;;;;;;15.80;95.91;100075.59;5088562;28;19922;-56
2023/05/16 09:36:09;;;;;;;;;;;;;;;15.60;92.08;100070.38;5083197;28;19920;-56
2023/05/16 09:38:34;;;;;;;;;;;;;;;15.70;92.23;100074.31;5078974;28;20029;-55
2023/05/16 09:41:00;;;;;;;;;;;;;;;15.75;89.84;100072.28;5085768;28;20291;-55
2023/05/16 09:43:26;;;;;;;;;;;;;;;15.71;88.23;100080.56;5089827;28;20380;-56
2023/05/16 09:45:52;;;;;;;;;;;;;;;15.71;89.14;100081.44;5086745;28;19916;-56
2023/05/16 09:48:17;;;;;;;;;;;;;;;15.50;86.08;100074.50;5082116;28;19920;-55
2023/05/16 09:50:51;;;;;;;;;;;;;;;15.52;87.51;100080.66;5090342;28;20334;-55
2023/05/16 09:53:17;;;;;;;;;;;;;;;15.49;88.71;100077.25;5080934;28;19927;-56
2023/05/16 09:55:42;;;;;;;;;;;;;;;15.52;89.37;100082.44;5085321;28;20354;-55
2023/05/16 09:58:07;;;;;;;;;;;;;;;15.41;86.61;100085.72;5087118;28;19920;-55
2023/05/16 10:00:33;;;;;;;;;;;;;;;15.38;88.66;100088.50;5063677;28;19920;-55
2023/05/16 10:02:59;;;;;;;;;;;;;;;15.39;88.96;100094.75;5062449;28;19923;-55
2023/05/16 10:05:28;;;;;;;;;;;;;;;15.31;86.61;100089.75;5057417;28;19920;-55
2023/05/16 10:07:56;;;;;;;;;;;;;;;15.35;88.32;100087.78;5067202;28;20470;-56
2023/05/16 10:10:22;;;;;;;;;;;;;;;15.28;87.84;100087.25;5067993;28;19917;-55
2023/05/16 10:12:47;;;;;;;;;;;;;;;15.33;89.14;100084.31;5067224;28;19970;-55
2023/05/16 10:15:13;;;;;;;;;;;;;;;15.40;88.56;100091.16;5066030;28;20358;-55
2023/05/16 10:17:39;;;;;;;;;;;;;;;15.48;87.83;100095.19;5059585;28;19928;-55
2023/05/16 10:20:06;;;;;;;;;;;;;;;15.44;86.84;100096.25;5063666;28;19979;-55
2023/05/16 10:22:34;;;;;;;;;;;;;;;15.38;85.90;100093.88;5065443;28;19924;-55
2023/05/16 10:25:20;;;;;;;;;;;;;;;15.46;86.32;100090.81;5061090;28;20739;-55
2023/05/16 10:27:46;;;;;;;;;;;;;;;15.45;86.84;100098.00;5060753;28;19921;-55
2023/05/16 10:30:11;;;;;;;;;;;;;;;15.22;85.17;100100.09;5060990;28;19956;-55
2023/05/16 10:32:37;;;;;;;;;;;;;;;15.11;85.22;100100.59;5069239;28;20399;-55
2023/05/16 10:35:03;;;;;;;;;;;;;;;15.06;86.14;100101.75;5069179;28;19923;-55
2023/05/16 10:37:30;;;;;;;;;;;;;;;15.02;85.75;100106.44;5066445;28;19950;-55
2023/05/16 10:39:56;;;;;;;;;;;;;;;14.86;86.10;100115.28;5070182;28;20321;-55
2023/05/16 10:42:21;;;;;;;;;;;;;;;14.85;85.80;100114.41;5069387;28;20007;-54
2023/05/16 10:44:46;;;;;;;;;;;;;;;14.74;86.18;100111.38;5063330;28;19927;-55
2023/05/16 10:47:11;;;;;;;;;;;;;;;14.83;86.79;100118.97;5057780;28;19920;-56
2023/05/16 10:49:39;;;;;;;;;;;;;;;14.78;86.36;100120.16;5068367;28;20312;-55
2023/05/16 10:52:09;;;;;;;;;;;;;;;14.93;87.20;100117.59;5055279;28;20507;-55
2023/05/16 10:54:40;;;;;;;;;;;;;;;15.01;87.53;100115.41;5066946;28;20004;-55
2023/05/16 10:57:07;;;;;;;;;;;;;;;15.06;87.98;100105.31;5060343;28;19912;-55
2023/05/16 10:59:40;;;;;;;;;;;;;;;15.11;84.76;100111.31;5076021;28;19928;-55
2023/05/16 11:02:19;;;;;;;;;;;;;;;15.37;86.15;100118.91;5088032;28;19916;-55
2023/05/16 11:04:47;;;;;;;;;;;;;;;15.51;86.95;100116.47;5086087;28;19994;-55
2023/05/16 11:07:12;;;;;;;;;;;;;;;15.71;87.08;100115.44;5080689;28;19942;-55
2023/05/16 11:09:42;;;;;;;;;;;;;;;15.68;84.09;100124.50;5083711;28;20011;-55
2023/05/16 11:12:08;;;;;;;;;;;;;;;15.60;81.22;100115.97;5085967;28;19920;-55
2023/05/16 11:14:40;;;;;;;;;;;;;;;15.59;80.59;100118.75;5085538;28;20296;-55
2023/05/16 11:17:09;;;;;;;;;;;;;;;15.64;81.99;100117.56;5076358;28;19920;-55
2023/05/16 11:19:34;;;;;;;;;;;;;;;15.90;83.26;100120.72;5087679;28;19931;-55
2023/05/16 11:22:16;;;;;;;;;;;;;;;15.87;81.77;100129.78;5079862;28;19920;-57
2023/05/16 11:24:49;;;;;;;;;;;;;;;15.92;82.11;100121.47;5088224;28;20349;-56
2023/05/16 11:27:20;;;;;;;;;;;;;;;15.65;78.60;100123.78;5088916;28;19966;-55
2023/05/16 11:29:45;;;;;;;;;;;;;;;15.59;80.31;100119.63;5085383;28;19942;-55
2023/05/16 11:32:11;;;;;;;;;;;;;;;15.43;78.71;100125.84;5071182;28;19912;-55
2023/05/16 11:34:38;;;;;;;;;;;;;;;15.63;80.45;100126.53;5089498;28;19916;-55
2023/05/16 11:37:04;;;;;;;;;;;;;;;15.64;78.52;100135.47;5086802;28;19985;-55
2023/05/16 11:39:30;;;;;;;;;;;;;;;15.63;79.98;100141.78;5086861;28;20413;-54
2023/05/16 11:41:55;;;;;;;;;;;;;;;15.60;79.38;100142.78;5077740;28;20571;-55
2023/05/16 11:44:21;;;;;;;;;;;;;;;15.52;77.51;100142.31;5086042;28;19924;-56
2023/05/16 11:46:46;;;;;;;;;;;;;;;15.43;77.76;100142.78;5083329;28;20366;-55
2023/05/16 11:49:12;;;;;;;;;;;;;;;15.39;79.27;100149.25;5076738;28;19928;-55
2023/05/16 11:51:38;;;;;;;;;;;;;;;15.32;79.49;100155.81;5082704;28;19935;-55
2023/05/16 11:54:06;;;;;;;;;;;;;;;15.24;78.50;100163.38;5080769;28;19926;-54
2023/05/16 11:56:34;;;;;;;;;;;;;;;15.23;79.83;100158.97;5076046;28;20418;-54
2023/05/16 11:58:59;;;;;;;;;;;;;;;15.30;80.94;100155.03;5080801;28;19921;-54
2023/05/16 12:01:30;;;;;;;;;;;;;;;15.21;78.61;100155.47;5086021;28;20436;-54
2023/05/16 12:03:58;;;;;;;;;;;;;;;15.28;78.00;100159.59;5084429;28;19926;-54
2023/05/16 12:06:25;;;;;;;;;;;;;;;15.45;78.39;100164.16;5078902;28;19920;-54
2023/05/16 12:08:51;;;;;;;;;;;;;;;15.79;78.66;100159.69;5084338;28;20282;-55
2023/05/16 12:11:16;;;;;;;;;;;;;;;16.13;77.06;100169.50;5087287;28;19920;-54
2023/05/16 12:13:41;;;;;;;;;;;;;;;16.48;76.80;100160.50;5084008;28;20334;-54
2023/05/16 12:16:07;;;;;;;;;;;;;;;16.73;74.64;100166.25;5082385;28;20277;-55
2023/05/16 12:18:32;;;;;;;;;;;;;;;16.87;74.03;100163.66;5069833;28;19950;-54
2023/05/16 12:20:57;;;;;;;;;;;;;;;17.09;74.07;100163.31;5083048;28;19924;-55
2023/05/16 12:23:25;;;;;;;;;;;;;;;17.17;71.85;100166.44;5070342;28;19924;-56
2023/05/16 12:25:54;;;;;;;;;;;;;;;17.21;72.91;100165.31;5085157;28;20459;-55
2023/05/16 12:28:20;;;;;;;;;;;;;;;17.13;71.68;100167.59;5079373;28;19921;-55
2023/05/16 12:30:46;;;;;;;;;;;;;;;16.85;72.01;100170.94;5089121;28;20018;-54